Time;durP1;ratioP1;P1;durP2;ratioP2;P2;SDS_P1;SDS_P2;PMS_P1;PMS_P2;Temp;Humidity;BMP_temperature;BMP_pressure;BME280_temperature;BME280_humidity;BME280_pressure;Samples;Min_cycle;Max_cycle;Signal;HPM_P1;HPM_P2
2021/12/14 00:01:02;;;;;;;2.30;2.10;;;;;;;15.11;59.69;102575.50;5122925;27;20027;-61
2021/12/14 00:03:31;;;;;;;2.40;2.20;;;;;;;15.11;59.85;102573.78;5115316;28;20023;-61
2021/12/14 00:05:57;;;;;;;2.97;2.28;;;;;;;15.09;59.89;102570.31;5115139;28;20032;-61
2021/12/14 00:08:25;;;;;;;2.33;2.10;;;;;;;15.13;59.55;102573.75;5128875;27;20031;-61
2021/12/14 00:13:43;;;;;;;2.53;2.28;;;;;;;15.10;59.69;102558.09;5135812;27;20039;-61
2021/12/14 00:16:10;;;;;;;2.53;2.10;;;;;;;15.09;60.09;102561.56;5135729;27;20031;-62
2021/12/14 00:18:36;;;;;;;2.38;2.17;;;;;;;15.09;59.74;102559.84;5135783;27;20054;-62
2021/12/14 00:21:20;;;;;;;2.40;2.20;;;;;;;15.14;60.00;102565.91;5135487;27;20038;-60
2021/12/14 00:24:06;;;;;;;3.25;2.20;;;;;;;15.13;59.74;102579.88;5135640;27;20027;-62
2021/12/14 00:26:36;;;;;;;;;;;;;;;15.21;59.56;102569.34;5135647;27;20027;-62
2021/12/14 00:29:03;;;;;;;2.95;2.25;;;;;;;15.04;59.65;102556.38;5135456;27;19912;-63
2021/12/14 00:31:28;;;;;;;2.60;2.40;;;;;;;15.12;59.91;102582.47;5135204;27;20105;-62
2021/12/14 00:34:02;;;;;;;2.53;2.10;;;;;;;15.13;59.73;102577.25;5134665;27;20556;-61
2021/12/14 00:36:27;;;;;;;3.00;2.05;;;;;;;15.13;59.82;102573.75;5135338;27;20030;-62
2021/12/14 00:38:56;;;;;;;2.60;2.07;;;;;;;15.06;59.67;102579.91;5135331;27;20018;-62
2021/12/14 00:41:29;;;;;;;2.10;1.90;;;;;;;15.04;59.86;102569.44;5135297;27;20035;-62
2021/12/14 00:43:55;;;;;;;2.50;2.00;;;;;;;15.06;59.70;102588.63;5135027;27;20019;-61
2021/12/14 00:46:21;;;;;;;2.20;2.00;;;;;;;15.09;59.76;102595.56;5134681;27;20109;-61
2021/12/14 00:48:49;;;;;;;2.20;2.00;;;;;;;15.12;59.78;102603.41;5134873;27;20023;-62
2021/12/14 00:51:14;;;;;;;2.67;2.08;;;;;;;15.06;59.85;102596.47;5134913;27;20358;-62
2021/12/14 00:53:40;;;;;;;2.40;2.20;;;;;;;15.07;59.73;102607.81;5132609;27;20035;-62
2021/12/14 00:56:08;;;;;;;2.95;2.22;;;;;;;15.11;59.83;102622.59;5130691;27;20034;-61
2021/12/14 00:58:35;;;;;;;2.17;1.98;;;;;;;15.07;59.54;102602.59;5120974;27;20043;-62
2021/12/14 01:01:20;;;;;;;2.90;2.20;;;;;;;15.06;59.73;102617.38;5121095;27;20030;-62
2021/12/14 01:03:50;;;;;;;2.25;2.00;;;;;;;15.10;59.78;102620.84;5121650;27;20036;-62
2021/12/14 01:06:17;;;;;;;4.05;2.30;;;;;;;15.08;59.71;102610.41;5120356;27;20123;-62
2021/12/14 01:08:45;;;;;;;2.33;1.92;;;;;;;15.10;59.99;102607.75;5121754;27;20102;-62
2021/12/14 01:11:18;;;;;;;2.35;2.10;;;;;;;15.09;59.94;102601.69;5124117;27;20034;-61
2021/12/14 01:13:55;;;;;;;2.15;1.95;;;;;;;15.06;59.79;102595.63;5123039;27;20517;-62
2021/12/14 01:16:33;;;;;;;2.28;2.08;;;;;;;15.09;59.95;102595.56;5123086;27;20024;-62
2021/12/14 01:27:34;;;;;;;2.47;2.10;;;;;;;15.09;59.91;102604.31;5122597;27;20414;-62
2021/12/14 01:30:05;;;;;;;2.13;1.92;;;;;;;15.05;60.16;102581.66;5112352;28;20092;-62
2021/12/14 01:32:36;;;;;;;2.30;2.10;;;;;;;15.09;59.86;102575.53;5112741;28;20076;-62
2021/12/14 01:35:11;;;;;;;3.42;2.15;;;;;;;15.07;59.89;102573.81;5123006;27;20034;-62
2021/12/14 01:37:42;;;;;;;2.42;2.10;;;;;;;15.08;59.84;102584.25;5121739;27;20027;-61
2021/12/14 01:40:18;;;;;;;2.75;2.22;;;;;;;15.08;60.24;102578.16;5122563;27;20095;-62
2021/12/14 01:42:43;;;;;;;2.20;2.00;;;;;;;15.08;59.77;102584.25;5122857;27;20083;-62
2021/12/14 01:45:21;;;;;;;2.00;1.90;;;;;;;15.07;60.00;102572.06;5121947;27;20035;-62
2021/12/14 01:47:52;;;;;;;2.20;2.00;;;;;;;14.99;59.87;102563.41;5122603;27;20027;-62
2021/12/14 01:50:35;;;;;;;3.30;2.15;;;;;;;15.08;59.93;102576.41;5103540;27;20039;-62
2021/12/14 01:53:01;;;;;;;2.38;2.00;;;;;;;15.09;59.98;102572.03;5105273;28;20027;-61
2021/12/14 01:55:32;;;;;;;1.98;1.88;;;;;;;15.04;59.87;102553.75;5123024;27;20036;-62
2021/12/14 01:58:02;;;;;;;2.28;2.08;;;;;;;15.07;60.07;102565.97;5122116;27;20546;-62
2021/12/14 02:00:34;;;;;;;2.20;2.00;;;;;;;15.07;60.23;102551.13;5121755;28;20054;-62
2021/12/14 02:03:02;;;;;;;2.88;1.98;;;;;;;14.98;59.92;102538.97;5122516;28;20513;-63
2021/12/14 02:05:32;;;;;;;2.30;2.08;;;;;;;15.08;60.04;102559.88;5104109;28;20031;-62
2021/12/14 02:08:00;;;;;;;2.20;2.00;;;;;;;15.05;59.92;102531.13;5121941;28;20034;-62
2021/12/14 02:10:33;;;;;;;2.60;2.20;;;;;;;15.00;60.09;102525.91;5122597;28;20027;-62
2021/12/14 02:12:59;;;;;;;2.17;1.98;;;;;;;15.03;60.21;102528.50;5122161;28;20024;-62
2021/12/14 02:15:31;;;;;;;2.40;2.10;;;;;;;15.03;60.06;102535.47;5123054;28;20073;-62
2021/12/14 02:17:59;;;;;;;2.40;1.98;;;;;;;15.05;60.17;102547.66;5122007;28;20027;-61
2021/12/14 02:20:29;;;;;;;2.30;2.10;;;;;;;15.06;60.03;102554.63;5122639;28;20111;-62
2021/12/14 02:22:56;;;;;;;2.17;1.98;;;;;;;15.07;60.00;102550.28;5123731;28;20031;-62
2021/12/14 02:25:22;;;;;;;2.30;2.10;;;;;;;15.07;60.06;102555.50;5122211;28;20077;-62
2021/12/14 02:27:51;;;;;;;2.42;2.00;;;;;;;15.07;60.24;102550.28;5124341;28;20118;-62
2021/12/14 02:30:23;;;;;;;2.58;2.10;;;;;;;15.05;59.88;102544.19;5133824;28;20481;-61
2021/12/14 02:32:49;;;;;;;2.10;2.00;;;;;;;15.04;60.02;102547.69;5133537;28;20461;-61
2021/12/14 02:35:19;;;;;;;2.40;1.97;;;;;;;15.06;59.70;102552.00;5133573;28;20039;-62
2021/12/14 02:37:44;;;;;;;2.00;1.80;;;;;;;15.06;59.94;102557.25;5134047;28;20118;-62
2021/12/14 02:40:20;;;;;;;2.50;2.10;;;;;;;15.06;59.80;102565.09;5133347;28;20072;-62
2021/12/14 02:42:51;;;;;;;2.27;2.00;;;;;;;15.07;60.02;102571.19;5133660;28;20026;-62
2021/12/14 02:45:21;;;;;;;2.33;1.90;;;;;;;15.05;59.91;102565.09;5133441;28;20055;-62
2021/12/14 02:47:47;;;;;;;2.38;2.00;;;;;;;15.05;59.61;102565.09;5127411;28;20024;-62
2021/12/14 02:50:13;;;;;;;2.00;1.90;;;;;;;15.03;59.85;102556.41;5122713;28;20385;-62
2021/12/14 02:52:40;;;;;;;2.03;1.83;;;;;;;15.02;60.12;102549.44;5122129;28;20035;-62
2021/12/14 02:55:17;;;;;;;;;;;;;;;15.15;59.83;102551.09;5122695;28;20024;-62
2021/12/14 02:57:49;;;;;;;2.10;1.90;;;;;;;15.03;59.60;102532.88;5122607;27;19912;-62
2021/12/14 03:00:23;;;;;;;2.08;1.88;;;;;;;15.03;60.06;102531.09;5124964;27;20051;-61
2021/12/14 03:02:49;;;;;;;2.47;1.70;;;;;;;14.97;59.90;102526.78;5125780;27;20026;-62
2021/12/14 03:05:28;;;;;;;1.90;1.80;;;;;;;15.05;59.88;102531.13;5127341;27;20385;-61
2021/12/14 03:07:59;;;;;;;2.10;1.90;;;;;;;15.06;59.92;102538.09;5124871;27;20148;-62
2021/12/14 03:12:57;;;;;;;2.17;1.98;;;;;;;15.07;59.97;102529.38;5127015;27;20024;-61
2021/12/14 03:15:42;;;;;;;;;;;;;;;15.13;59.82;102519.72;5123894;27;20443;-62
2021/12/14 03:18:10;;;;;;;2.67;2.10;;;;;;;15.04;60.06;102508.47;5126654;27;19908;-62
2021/12/14 03:20:41;;;;;;;1.80;1.70;;;;;;;15.02;59.86;102503.25;5125073;27;20079;-60
2021/12/14 03:23:12;;;;;;;2.65;2.00;;;;;;;15.04;59.91;102508.47;5126679;27;20016;-61
2021/12/14 03:25:42;;;;;;;2.13;1.90;;;;;;;15.02;59.91;102505.88;5125008;27;20027;-62
2021/12/14 03:28:09;;;;;;;2.08;1.90;;;;;;;15.05;59.90;102510.19;5107089;27;20034;-60
2021/12/14 03:30:41;;;;;;;2.00;1.80;;;;;;;15.03;59.85;102506.72;5108895;27;20031;-62
2021/12/14 03:33:17;;;;;;;2.10;1.80;;;;;;;15.03;60.13;102512.81;5126233;27;20454;-62
2021/12/14 03:35:54;;;;;;;1.83;1.70;;;;;;;15.01;59.87;102504.13;5125517;27;20029;-62
2021/12/14 03:38:31;;;;;;;1.95;1.80;;;;;;;15.00;59.92;102501.50;5124992;27;20469;-62
2021/12/14 03:41:01;;;;;;;2.17;1.98;;;;;;;15.01;59.98;102492.78;5120627;27;20034;-62
2021/12/14 03:43:27;;;;;;;1.80;1.70;;;;;;;15.03;59.82;102499.72;5124334;27;20544;-62
2021/12/14 03:45:53;;;;;;;2.10;1.90;;;;;;;15.04;59.83;102511.06;5125151;27;20023;-61
2021/12/14 03:48:25;;;;;;;1.63;1.53;;;;;;;15.04;59.77;102518.91;5126454;27;20084;-62
2021/12/14 03:50:52;;;;;;;1.83;1.73;;;;;;;15.03;59.83;102531.09;5125116;27;20482;-62
2021/12/14 03:53:19;;;;;;;1.90;1.77;;;;;;;14.95;60.05;102525.97;5124222;27;20521;-62
2021/12/14 03:55:48;;;;;;;1.95;1.85;;;;;;;15.00;59.70;102544.22;5124484;27;20111;-62
2021/12/14 03:58:18;;;;;;;1.83;1.73;;;;;;;15.03;59.95;102549.41;5125192;27;20080;-61
2021/12/14 04:00:50;;;;;;;2.22;1.80;;;;;;;14.99;59.80;102550.34;5126472;27;20195;-62
2021/12/14 04:03:17;;;;;;;1.73;1.63;;;;;;;15.04;59.58;102571.22;5125870;27;20114;-62
2021/12/14 04:05:44;;;;;;;1.80;1.70;;;;;;;15.04;59.83;102571.22;5123990;27;20065;-61
2021/12/14 04:08:12;;;;;;;1.85;1.75;;;;;;;15.00;59.80;102564.25;5125514;27;20104;-61
2021/12/14 04:10:40;;;;;;;2.40;1.98;;;;;;;15.04;59.63;102568.59;5125111;27;20031;-61
2021/12/14 04:13:08;;;;;;;1.80;1.70;;;;;;;15.00;59.77;102564.25;5124072;27;20019;-62
2021/12/14 04:15:34;;;;;;;2.03;1.83;;;;;;;15.01;59.94;102555.53;5124608;27;20047;-60
2021/12/14 04:18:00;;;;;;;2.33;1.80;;;;;;;15.00;59.77;102553.78;5125957;27;20072;-62
2021/12/14 04:20:30;;;;;;;2.10;1.90;;;;;;;15.05;59.71;102557.25;5123609;27;20019;-62
2021/12/14 04:22:56;;;;;;;3.63;1.90;;;;;;;15.05;59.92;102554.66;5124583;27;20023;-62
2021/12/14 04:25:33;;;;;;;2.05;1.85;;;;;;;15.02;59.96;102557.28;5125805;27;20027;-61
2021/12/14 04:28:03;;;;;;;1.92;1.83;;;;;;;15.00;59.62;102556.41;5125671;27;20023;-59
2021/12/14 04:30:28;;;;;;;1.60;1.50;;;;;;;15.02;59.64;102563.38;5122481;27;20373;-62
2021/12/14 04:32:59;;;;;;;2.57;1.87;;;;;;;15.03;59.68;102551.16;5114370;28;20031;-61
2021/12/14 04:35:25;;;;;;;3.25;2.00;;;;;;;15.04;59.63;102555.53;5115036;28;20031;-61
2021/12/14 04:37:55;;;;;;;2.08;1.90;;;;;;;15.02;59.90;102546.81;5115016;28;20043;-62
2021/12/14 04:54:03;;;;;;;2.03;1.83;;;;;;;14.90;59.78;102513.78;5114722;28;20046;-62
2021/12/14 04:56:33;;;;;;;2.38;1.90;;;;;;;14.95;59.96;102523.34;5114626;28;20031;-62
2021/12/14 04:59:10;;;;;;;2.40;1.90;;;;;;;14.98;59.75;102525.91;5114137;28;20050;-62
2021/12/14 05:01:39;;;;;;;2.00;1.80;;;;;;;14.99;59.75;102532.03;5114105;28;20389;-62
2021/12/14 05:04:09;;;;;;;2.00;1.67;;;;;;;14.99;59.81;102537.25;5114528;28;20059;-62
2021/12/14 05:09:35;;;;;;;2.00;1.80;;;;;;;14.98;59.70;102535.53;5089754;28;20466;-62
2021/12/14 05:12:12;;;;;;;2.20;2.00;;;;;;;14.97;59.60;102531.16;5114032;28;20055;-62
2021/12/14 05:14:41;;;;;;;2.00;1.90;;;;;;;14.96;59.67;102524.19;5114387;28;20031;-62
2021/12/14 05:17:19;;;;;;;2.10;1.90;;;;;;;14.97;59.43;102534.63;5114045;28;20051;-62
2021/12/14 05:19:47;;;;;;;2.00;1.85;;;;;;;14.96;59.76;102522.47;5114256;28;20055;-61
2021/12/14 05:22:16;;;;;;;2.22;2.00;;;;;;;14.94;59.56;102518.09;5113110;28;20096;-62
2021/12/14 05:24:47;;;;;;;2.08;1.98;;;;;;;15.00;59.65;102532.88;5113766;28;20032;-61
2021/12/14 05:27:18;;;;;;;2.22;2.03;;;;;;;14.94;59.85;102518.09;5114052;28;20067;-61
2021/12/14 05:29:44;;;;;;;2.40;1.95;;;;;;;14.98;59.53;102520.69;5114075;28;20085;-62
2021/12/14 05:32:11;;;;;;;2.13;2.00;;;;;;;14.98;59.69;102520.69;5114120;28;20028;-62
2021/12/14 05:34:37;;;;;;;;;;;;;;;15.05;59.49;102513.66;5132632;27;20521;-62
2021/12/14 05:37:02;;;;;;;;;;;;;;;15.07;59.42;102518.91;5134737;27;19911;-60
2021/12/14 05:44:36;;;;;;;2.08;1.90;;;;;;;14.96;59.60;102529.44;5133497;27;20426;-62
2021/12/14 05:47:06;;;;;;;2.55;1.88;;;;;;;14.93;59.54;102521.59;5134022;27;20031;-62
2021/12/14 05:49:32;;;;;;;2.40;2.10;;;;;;;14.97;59.29;102526.78;5134212;27;20027;-62
2021/12/14 05:52:00;;;;;;;2.20;2.00;;;;;;;14.95;59.53;102525.97;5134390;27;20058;-62
2021/12/14 05:54:30;;;;;;;1.90;1.80;;;;;;;14.94;59.41;102534.69;5133981;27;20438;-61
2021/12/14 05:56:58;;;;;;;2.33;2.13;;;;;;;14.91;59.78;102531.22;5133426;28;20031;-62
2021/12/14 05:59:28;;;;;;;2.20;2.00;;;;;;;14.92;59.33;102541.66;5133252;27;20047;-63
2021/12/14 06:01:54;;;;;;;2.10;1.90;;;;;;;14.83;59.49;102521.66;5133028;27;20030;-61
2021/12/14 06:04:21;;;;;;;2.47;2.10;;;;;;;14.93;59.57;102537.28;5133488;28;20379;-62
2021/12/14 06:06:52;;;;;;;2.60;2.17;;;;;;;14.95;59.94;102546.88;5134040;28;20023;-61
2021/12/14 06:09:24;;;;;;;2.67;2.10;;;;;;;14.89;59.61;102539.06;5133496;28;20024;-62
2021/12/14 06:11:56;;;;;;;2.25;2.05;;;;;;;14.93;59.64;102540.78;5133325;28;20427;-62
2021/12/14 06:14:26;;;;;;;3.55;2.40;;;;;;;14.90;59.72;102546.00;5127782;28;20031;-61
2021/12/14 06:17:04;;;;;;;2.67;1.92;;;;;;;14.94;59.55;102541.63;5132222;28;20023;-62
2021/12/14 06:19:36;;;;;;;2.65;1.98;;;;;;;14.93;59.68;102551.25;5128106;28;20026;-60
2021/12/14 06:22:08;;;;;;;3.22;2.50;;;;;;;14.92;59.93;102554.72;5132411;28;20035;-62
2021/12/14 06:24:44;;;;;;;3.17;2.28;;;;;;;14.88;59.51;102555.59;5128234;28;20457;-62
2021/12/14 06:27:13;;;;;;;3.00;2.30;;;;;;;14.92;59.40;102565.19;5127689;28;20015;-62
2021/12/14 06:29:41;;;;;;;5.75;2.40;;;;;;;14.93;59.58;102563.41;5132061;28;20023;-62
2021/12/14 06:32:28;;;;;;;4.05;2.40;;;;;;;14.93;59.57;102555.56;5124640;27;20462;-62
2021/12/14 06:34:57;;;;;;;2.55;2.22;;;;;;;14.88;59.43;102552.13;5130563;27;20042;-62
2021/12/14 06:38:06;;;;;;;3.35;2.30;;;;;;;14.93;59.69;102560.81;5131801;27;20076;-62
2021/12/14 06:40:44;;;;;;;3.67;2.30;;;;;;;14.92;59.68;102562.56;5135384;27;20020;-61
2021/12/14 06:43:14;;;;;;;2.60;2.38;;;;;;;14.88;59.72;102554.75;5136859;27;20127;-63
2021/12/14 06:45:43;;;;;;;3.70;2.40;;;;;;;14.87;59.38;102559.09;5136183;27;20035;-61
2021/12/14 06:48:20;;;;;;;4.00;2.45;;;;;;;14.91;59.67;102562.59;5136943;27;20027;-61
2021/12/14 06:50:47;;;;;;;;;;;;;;;14.99;59.30;102568.63;5137567;27;20015;-61
2021/12/14 06:53:15;;;;;;;5.07;2.78;;;;;;;14.88;59.61;102575.66;5137385;27;19958;-61
2021/12/14 06:55:42;;;;;;;4.20;2.67;;;;;;;14.87;59.59;102574.78;5117557;27;20113;-61
2021/12/14 06:58:12;;;;;;;3.03;2.50;;;;;;;14.87;59.33;102573.94;5136870;27;20026;-62
2021/12/14 07:00:42;;;;;;;2.65;2.40;;;;;;;14.86;59.33;102578.28;5137389;27;20310;-62
2021/12/14 07:03:08;;;;;;;3.67;2.55;;;;;;;14.90;59.21;102581.75;5137272;27;20027;-61
2021/12/14 07:05:34;;;;;;;3.27;2.30;;;;;;;14.90;59.44;102585.22;5137195;27;20076;-62
2021/12/14 07:08:08;;;;;;;3.53;2.42;;;;;;;14.85;59.58;102575.69;5136513;27;20066;-62
2021/12/14 07:10:36;;;;;;;2.92;2.50;;;;;;;14.87;59.24;102590.47;5137073;27;20509;-61
2021/12/14 07:13:10;;;;;;;3.58;2.38;;;;;;;14.84;59.48;102577.44;5136757;27;20030;-62
2021/12/14 07:15:36;;;;;;;4.10;2.70;;;;;;;14.88;59.49;102592.22;5137355;27;20027;-62
2021/12/14 07:18:04;;;;;;;4.40;2.67;;;;;;;14.83;59.58;102592.22;5136524;27;20035;-62
2021/12/14 07:20:32;;;;;;;3.33;2.40;;;;;;;14.87;59.31;102605.28;5136826;27;20024;-62
2021/12/14 07:23:04;;;;;;;3.17;2.35;;;;;;;14.84;59.69;102600.97;5136680;27;20034;-62
2021/12/14 07:25:36;;;;;;;4.03;2.67;;;;;;;14.86;59.29;102614.88;5136982;27;20079;-61
2021/12/14 07:28:11;;;;;;;3.38;2.65;;;;;;;14.79;59.55;102602.72;5136712;27;20042;-62
2021/12/14 07:30:50;;;;;;;5.15;2.88;;;;;;;14.86;59.44;102614.88;5136958;27;20373;-62
2021/12/14 07:33:21;;;;;;;3.05;2.50;;;;;;;14.83;59.36;102612.28;5136623;27;20110;-62
2021/12/14 07:36:00;;;;;;;3.63;2.50;;;;;;;14.85;59.58;102620.09;5136765;27;20027;-61
2021/12/14 07:38:30;;;;;;;3.08;2.55;;;;;;;14.87;59.55;102624.44;5136545;27;20118;-61
2021/12/14 07:41:04;;;;;;;3.88;2.80;;;;;;;14.85;59.49;102623.63;5136650;27;20015;-62
2021/12/14 07:43:38;;;;;;;3.92;2.70;;;;;;;14.82;59.59;102618.38;5136722;27;20027;-62
2021/12/14 07:46:38;;;;;;;3.33;2.45;;;;;;;14.84;59.40;102621.88;5136346;27;20066;-62
2021/12/14 07:49:03;;;;;;;3.97;2.72;;;;;;;14.85;59.70;102641.91;5136491;27;20015;-62
2021/12/14 07:51:33;;;;;;;3.93;2.60;;;;;;;14.77;59.17;102630.59;5136336;27;20399;-62
2021/12/14 07:54:04;;;;;;;4.03;2.70;;;;;;;14.84;59.30;102642.78;5136432;27;20027;-62
2021/12/14 07:56:36;;;;;;;4.93;2.70;;;;;;;14.83;59.46;102644.50;5136137;27;20029;-60
2021/12/14 07:59:09;;;;;;;4.00;2.83;;;;;;;14.75;59.54;102632.38;5135891;27;20532;-61
2021/12/14 08:01:34;;;;;;;4.47;2.60;;;;;;;14.79;59.39;102642.81;5136193;27;20031;-62
2021/12/14 08:04:07;;;;;;;4.37;2.77;;;;;;;14.80;59.65;102644.53;5136645;27;20030;-62
2021/12/14 08:06:54;;;;;;;3.50;2.80;;;;;;;14.83;59.38;102652.34;5136167;27;20495;-62
2021/12/14 08:09:32;;;;;;;3.67;2.70;;;;;;;14.84;59.33;102658.47;5135901;27;20138;-62
2021/12/14 08:11:58;;;;;;;3.30;2.60;;;;;;;14.82;59.23;102654.97;5136041;27;20084;-62
2021/12/14 08:14:26;;;;;;;4.88;2.60;;;;;;;14.80;59.36;102654.13;5136095;27;20039;-62
2021/12/14 08:17:05;;;;;;;4.63;2.70;;;;;;;14.78;59.63;102656.75;5136079;27;20058;-62
2021/12/14 08:19:38;;;;;;;4.57;2.80;;;;;;;14.79;59.29;102653.25;5135815;27;20259;-61
2021/12/14 08:22:10;;;;;;;4.68;2.90;;;;;;;14.81;59.45;102653.25;5135502;27;20481;-62
2021/12/14 08:24:37;;;;;;;4.22;2.50;;;;;;;14.85;59.61;102659.31;5135783;27;20031;-62
2021/12/14 08:27:05;;;;;;;4.60;2.78;;;;;;;14.82;59.43;102657.59;5135752;27;20031;-62
2021/12/14 08:29:32;;;;;;;4.57;2.97;;;;;;;14.85;59.79;102661.94;5135623;27;20027;-62
2021/12/14 08:32:13;;;;;;;4.40;2.90;;;;;;;14.82;59.55;102661.06;5135501;27;20027;-62
2021/12/14 08:34:45;;;;;;;3.83;2.90;;;;;;;14.78;59.67;102648.03;5135041;27;20046;-62
2021/12/14 08:37:27;;;;;;;3.92;2.83;;;;;;;14.85;59.35;102665.44;5135354;27;20385;-62
2021/12/14 08:40:02;;;;;;;4.00;2.70;;;;;;;14.80;59.39;102661.97;5135781;27;20035;-62
2021/12/14 08:42:42;;;;;;;3.92;2.60;;;;;;;14.82;59.30;102668.06;5135419;27;20030;-61
2021/12/14 08:45:26;;;;;;;5.53;2.92;;;;;;;14.79;59.23;102665.44;5135302;27;20489;-61
2021/12/14 08:48:11;;;;;;;5.00;2.92;;;;;;;14.84;59.31;102668.94;5135635;27;20019;-62
2021/12/14 08:50:44;;;;;;;3.80;2.85;;;;;;;14.84;59.16;102666.31;5135421;27;20111;-62
2021/12/14 08:53:12;;;;;;;5.13;3.20;;;;;;;14.78;59.39;102659.34;5134641;27;20076;-62
2021/12/14 08:55:43;;;;;;;5.40;3.08;;;;;;;14.72;59.28;102653.28;5134955;27;20031;-62
2021/12/14 08:58:11;;;;;;;4.57;3.00;;;;;;;14.78;59.26;102675.03;5135232;27;20063;-62
2021/12/14 09:00:47;;;;;;;4.65;3.10;;;;;;;14.78;59.32;102664.59;5134258;27;20084;-62
2021/12/14 09:03:20;;;;;;;4.80;2.90;;;;;;;14.79;59.25;102670.66;5134837;27;20519;-61
2021/12/14 09:05:49;;;;;;;5.13;2.88;;;;;;;14.75;59.53;102666.34;5134573;27;20055;-61
2021/12/14 09:08:16;;;;;;;3.72;2.70;;;;;;;14.81;59.07;102672.41;5134865;27;20031;-61
2021/12/14 09:10:45;;;;;;;4.15;2.90;;;;;;;14.81;59.13;102679.38;5135071;27;20495;-62
2021/12/14 09:13:13;;;;;;;6.07;3.40;;;;;;;14.79;59.10;102675.91;5134987;27;20035;-62
2021/12/14 09:15:46;;;;;;;5.10;3.30;;;;;;;14.80;59.04;102677.63;5135150;27;20034;-62
2021/12/14 09:18:14;;;;;;;5.55;3.53;;;;;;;14.78;59.63;102676.78;5134373;27;20487;-61
2021/12/14 09:20:48;;;;;;;5.40;2.97;;;;;;;14.74;59.25;102673.31;5134613;27;20103;-62
2021/12/14 09:23:23;;;;;;;5.80;3.10;;;;;;;14.81;59.19;102687.22;5134883;27;20050;-62
2021/12/14 09:25:50;;;;;;;4.95;3.13;;;;;;;14.78;59.10;102675.03;5135168;27;20031;-63
2021/12/14 09:28:16;;;;;;;5.68;3.38;;;;;;;14.84;59.04;102684.59;5134589;27;20119;-62
2021/12/14 09:30:47;;;;;;;4.78;3.20;;;;;;;14.82;59.21;102687.22;5126934;27;20111;-59
2021/12/14 09:33:15;;;;;;;4.40;3.15;;;;;;;14.78;59.09;102685.50;5124738;27;20102;-61
2021/12/14 09:35:41;;;;;;;5.38;3.13;;;;;;;14.83;59.17;102682.88;5121006;27;20448;-61
2021/12/14 09:38:12;;;;;;;5.95;3.42;;;;;;;14.82;59.29;102681.13;5113576;28;20421;-61
2021/12/14 09:40:54;;;;;;;4.28;2.90;;;;;;;14.82;59.41;102688.97;5132572;27;20038;-62
2021/12/14 09:43:21;;;;;;;5.97;3.30;;;;;;;14.83;59.40;102682.88;5134164;27;20410;-62
2021/12/14 09:45:53;;;;;;;5.60;3.17;;;;;;;14.80;59.32;102680.25;5133374;27;20080;-61
2021/12/14 09:48:23;;;;;;;4.28;3.00;;;;;;;14.77;59.03;102667.19;5122865;27;20028;-62
2021/12/14 09:50:49;;;;;;;5.78;3.60;;;;;;;14.77;59.30;102665.47;5113838;28;20368;-62
2021/12/14 09:53:21;;;;;;;5.70;3.40;;;;;;;14.82;59.15;102668.06;5113483;28;20035;-61
2021/12/14 09:55:48;;;;;;;6.38;3.58;;;;;;;14.82;59.43;102670.66;5113511;28;20039;-62
2021/12/14 09:58:19;;;;;;;4.82;3.22;;;;;;;14.80;59.12;102660.22;5111740;28;20028;-61
2021/12/14 10:00:54;;;;;;;5.40;3.30;;;;;;;14.81;59.30;102669.78;5111021;28;20044;-61
2021/12/14 10:03:20;;;;;;;5.07;3.40;;;;;;;14.81;59.35;102667.16;5111548;28;20023;-61
2021/12/14 10:05:53;;;;;;;5.90;3.40;;;;;;;14.76;59.20;102660.22;5111060;28;20169;-61
2021/12/14 10:08:22;;;;;;;4.75;3.20;;;;;;;14.80;59.17;102664.56;5111341;28;20023;-61
2021/12/14 10:10:58;;;;;;;5.63;3.42;;;;;;;14.72;59.24;102646.31;5111341;28;20027;-61
2021/12/14 10:13:25;;;;;;;5.88;3.40;;;;;;;14.76;59.25;102668.06;5112865;28;20028;-62
2021/12/14 10:15:53;;;;;;;5.00;3.13;;;;;;;14.76;59.23;102671.56;5113928;28;20066;-62
2021/12/14 10:18:24;;;;;;;5.00;3.28;;;;;;;14.79;59.37;102676.78;5105322;28;20046;-61
2021/12/14 10:20:58;;;;;;;5.97;3.40;;;;;;;14.78;59.31;102675.03;5113517;28;20107;-60
2021/12/14 10:23:25;;;;;;;5.57;3.03;;;;;;;14.79;59.05;102674.16;5113626;28;20020;-62
2021/12/14 10:25:52;;;;;;;;;;;;;;;14.88;59.02;102681.09;5114312;28;20377;-62
2021/12/14 10:28:19;;;;;;;5.47;3.20;;;;;;;14.81;58.96;102682.00;5113401;28;19915;-61
2021/12/14 10:30:56;;;;;;;5.45;3.50;;;;;;;14.78;59.06;102677.66;5113553;28;20118;-62
2021/12/14 10:33:23;;;;;;;6.20;3.47;;;;;;;14.81;59.04;102669.78;5113366;28;20053;-61
2021/12/14 10:35:56;;;;;;;5.10;3.55;;;;;;;14.81;59.05;102685.47;5113370;28;20043;-62
2021/12/14 10:38:32;;;;;;;5.22;3.38;;;;;;;14.79;58.67;102683.75;5113094;28;20034;-62
2021/12/14 10:43:55;;;;;;;6.70;3.65;;;;;;;14.77;59.03;102680.25;5113101;28;20047;-62
2021/12/14 10:46:34;;;;;;;6.38;3.60;;;;;;;14.82;59.20;102691.56;5078604;28;20461;-62
2021/12/14 10:49:00;;;;;;;6.07;3.85;;;;;;;14.75;59.05;102682.88;5113705;28;20030;-62
2021/12/14 10:51:31;;;;;;;6.57;3.92;;;;;;;14.81;58.91;102679.38;5113616;28;20438;-62
2021/12/14 10:54:00;;;;;;;5.50;3.65;;;;;;;14.81;58.97;102682.00;5112959;28;20026;-61
2021/12/14 10:56:35;;;;;;;5.95;3.70;;;;;;;14.81;59.23;102684.59;5111725;28;20024;-61
2021/12/14 10:59:04;;;;;;;6.68;3.78;;;;;;;14.80;59.34;102681.13;5111412;28;20020;-59
2021/12/14 11:01:33;;;;;;;5.68;3.50;;;;;;;14.81;58.98;102674.16;5111190;28;20027;-61
2021/12/14 11:04:12;;;;;;;5.93;3.70;;;;;;;14.82;59.05;102670.66;5111892;28;20373;-61
2021/12/14 11:06:42;;;;;;;6.63;3.67;;;;;;;14.80;58.84;102672.41;5111061;28;20454;-61
2021/12/14 11:09:42;;;;;;;8.23;4.10;;;;;;;14.79;58.96;102660.22;5110792;28;20362;-61
2021/12/14 11:12:28;;;;;;;6.10;3.70;;;;;;;14.82;58.97;102668.91;5112315;28;20081;-61
2021/12/14 11:15:06;;;;;;;5.97;3.78;;;;;;;14.76;58.84;102650.66;5112352;28;20023;-62
2021/12/14 11:20:20;;;;;;;5.88;3.88;;;;;;;14.81;58.91;102663.69;5099459;28;20077;-62
2021/12/14 11:23:03;;;;;;;6.30;3.70;;;;;;;14.83;58.98;102654.97;5115925;28;20019;-62
2021/12/14 11:25:31;;;;;;;7.05;3.97;;;;;;;14.80;59.34;102655.00;5115200;28;20454;-61
2021/12/14 11:28:03;;;;;;;8.70;4.28;;;;;;;14.81;59.21;102648.88;5115897;28;20093;-62
2021/12/14 11:30:36;;;;;;;7.25;3.90;;;;;;;14.79;59.22;102647.16;5115415;28;20027;-61
2021/12/14 11:33:22;;;;;;;7.35;4.10;;;;;;;14.83;58.92;102643.66;5115159;28;20050;-62
2021/12/14 11:36:22;;;;;;;7.28;4.10;;;;;;;14.85;59.03;102639.28;5115755;28;20051;-62
2021/12/14 11:39:22;;;;;;;6.03;3.65;;;;;;;14.86;59.16;102641.00;5069943;28;20040;-62
2021/12/14 11:41:57;;;;;;;7.65;4.22;;;;;;;14.83;59.05;102641.03;5111417;28;20079;-61
2021/12/14 11:44:34;;;;;;;7.10;3.65;;;;;;;14.79;58.93;102640.19;5115641;28;20058;-61
2021/12/14 11:46:59;;;;;;;;;;;;;;;14.91;59.05;102644.47;5097975;28;20070;-62
2021/12/14 11:49:50;;;;;;;7.37;4.13;;;;;;;14.86;59.22;102645.38;5115602;28;19954;-61
2021/12/14 11:52:39;;;;;;;7.60;4.00;;;;;;;14.83;59.21;102639.28;5115852;28;20102;-62
2021/12/14 11:55:42;;;;;;;6.65;4.05;;;;;;;14.86;59.11;102646.22;5115121;28;20027;-61
2021/12/14 11:58:17;;;;;;;7.38;4.07;;;;;;;14.81;59.07;102651.47;5095635;28;20036;-61
2021/12/14 12:00:57;;;;;;;7.32;4.00;;;;;;;14.83;58.94;102639.28;5115544;28;20084;-62
2021/12/14 12:03:40;;;;;;;6.43;3.88;;;;;;;14.80;59.15;102646.28;5115279;28;20028;-61
2021/12/14 12:11:59;;;;;;;7.53;4.07;;;;;;;14.79;58.86;102644.53;5115188;28;20045;-61
2021/12/14 12:14:27;;;;;;;7.18;4.45;;;;;;;14.79;59.36;102645.41;5115186;28;20028;-62
2021/12/14 12:16:58;;;;;;;8.02;4.22;;;;;;;14.79;59.06;102644.53;5115301;28;20367;-62
2021/12/14 12:19:28;;;;;;;6.70;4.05;;;;;;;14.78;59.10;102648.91;5115163;28;20114;-62
2021/12/14 12:21:55;;;;;;;7.43;4.18;;;;;;;14.73;59.13;102648.03;5115045;28;20045;-60
2021/12/14 12:24:55;;;;;;;;;;;;;;;14.86;58.97;102654.06;5115437;28;20024;-62
2021/12/14 12:27:24;;;;;;;8.70;4.38;;;;;;;14.78;59.31;102650.63;5052038;28;19968;-61
2021/12/14 12:32:54;;;;;;;9.95;4.72;;;;;;;14.77;58.78;102649.78;5110840;28;20351;-61
2021/12/14 12:35:28;;;;;;;8.75;4.65;;;;;;;14.77;58.94;102648.88;5114833;28;20035;-62
2021/12/14 12:37:56;;;;;;;7.45;4.30;;;;;;;14.71;59.44;102634.09;5114872;28;20393;-62